Time,TemperatureF,DewpointF,PressureIn,WindDirection,WindDirectionDegrees,WindSpeedMPH,WindSpeedGustMPH,Humidity,HourlyPrecipIn,Conditions,Clouds,dailyrainin,SoftwareType,DateUTC
2013-01-30 00:03:00,64.0,54.0,-100.00,NNW,340,2.0,8.0,69,0.00,,,-99.99,,2013-01-30 05:03:00,
2013-01-30 00:12:00,64.0,53.0,-100.00,East,80,3.0,10.0,67,0.00,,,-99.99,,2013-01-30 05:12:00,
2013-01-30 00:22:00,64.0,53.0,-100.00,NE,40,1.0,9.0,68,0.00,,,-99.99,,2013-01-30 05:22:00,
2013-01-30 00:32:00,64.0,53.0,-100.00,SSE,160,2.0,7.0,67,0.00,,,-99.99,,2013-01-30 05:32:00,
2013-01-30 00:43:00,64.0,53.0,-100.00,South,180,1.0,12.0,68,0.00,,,-99.99,,2013-01-30 05:43:00,
2013-01-30 00:52:00,64.0,52.0,-100.00,ESE,110,1.0,12.0,66,0.00,,,-99.99,,2013-01-30 05:52:00,
2013-01-30 01:02:00,63.0,52.0,-100.00,East,95,1.0,9.0,66,0.00,,,-99.99,,2013-01-30 06:02:00,
2013-01-30 01:11:00,63.0,51.0,-100.00,SSW,195,1.0,9.0,65,0.00,,,-99.99,,2013-01-30 06:11:00,
2013-01-30 01:21:00,63.0,51.0,-100.00,SSE,150,4.0,13.0,65,0.00,,,-99.99,,2013-01-30 06:21:00,
2013-01-30 01:32:00,63.0,51.0,-100.00,South,185,3.0,14.0,64,0.00,,,-99.99,,2013-01-30 06:32:00,
2013-01-30 01:42:00,63.0,51.0,-100.00,SE,145,1.0,15.0,64,0.00,,,-99.99,,2013-01-30 06:42:00,
2013-01-30 01:52:00,63.0,51.0,-100.00,SW,220,2.0,16.0,64,0.00,,,-99.99,,2013-01-30 06:52:00,
2013-01-30 02:02:00,63.0,51.0,-100.00,South,170,4.0,11.0,64,0.00,,,-99.99,,2013-01-30 07:02:00,
2013-01-30 02:11:00,63.0,51.0,-100.00,South,175,4.0,11.0,63,0.00,,,-99.99,,2013-01-30 07:11:00,
2013-01-30 02:21:00,62.0,51.0,-100.00,SSE,165,1.0,11.0,65,0.00,,,-99.99,,2013-01-30 07:21:00,
2013-01-30 02:32:00,62.0,50.0,-100.00,NE,45,1.0,16.0,65,0.00,,,-99.99,,2013-01-30 07:32:00,
2013-01-30 02:42:00,63.0,50.0,-100.00,South,170,9.0,14.0,62,0.00,,,-99.99,,2013-01-30 07:42:00,
2013-01-30 02:52:00,62.0,50.0,-100.00,SSW,195,5.0,11.0,62,0.00,,,-99.99,,2013-01-30 07:52:00,
2013-01-30 03:02:00,62.0,49.0,-100.00,SSE,160,1.0,10.0,63,0.00,,,-99.99,,2013-01-30 08:02:00,
2013-01-30 03:11:00,62.0,49.0,-100.00,SSW,195,2.0,11.0,63,0.00,,,-99.99,,2013-01-30 08:11:00,
2013-01-30 03:21:00,62.0,49.0,-100.00,ENE,60,2.0,9.0,62,0.00,,,-99.99,,2013-01-30 08:21:00,
2013-01-30 03:32:00,62.0,49.0,-100.00,South,185,2.0,11.0,62,0.00,,,-99.99,,2013-01-30 08:32:00,
2013-01-30 03:42:00,61.0,49.0,-100.00,NE,45,1.0,9.0,63,0.00,,,-99.99,,2013-01-30 08:42:00,
2013-01-30 03:52:00,62.0,49.0,-100.00,South,185,3.0,9.0,62,0.00,,,-99.99,,2013-01-30 08:52:00,
2013-01-30 04:02:00,62.0,50.0,-100.00,East,100,5.0,12.0,63,0.00,,,-99.99,,2013-01-30 09:02:00,
2013-01-30 04:11:00,62.0,49.0,-100.00,WSW,250,2.0,7.0,64,0.00,,,-99.99,,2013-01-30 09:11:00,
2013-01-30 04:21:00,62.0,50.0,-100.00,ENE,75,2.0,14.0,64,0.00,,,-99.99,,2013-01-30 09:21:00,
2013-01-30 04:32:00,62.0,50.0,-100.00,South,180,6.0,15.0,64,0.00,,,-99.99,,2013-01-30 09:32:00,
2013-01-30 04:42:00,63.0,50.0,-100.00,SSW,205,3.0,10.0,63,0.00,,,-99.99,,2013-01-30 09:42:00,
2013-01-30 04:51:00,62.0,50.0,-100.00,SE,140,2.0,6.0,64,0.00,,,-99.99,,2013-01-30 09:51:00,
2013-01-30 05:01:00,63.0,51.0,-100.00,ESE,110,4.0,13.0,64,0.00,,,-99.99,,2013-01-30 10:01:00,
2013-01-30 05:12:00,63.0,51.0,-100.00,SSW,195,2.0,12.0,65,0.00,,,-99.99,,2013-01-30 10:12:00,
2013-01-30 05:21:00,63.0,51.0,-100.00,NE,55,2.0,10.0,64,0.00,,,-99.99,,2013-01-30 10:21:00,
2013-01-30 05:32:00,63.0,51.0,-100.00,South,180,2.0,9.0,64,0.00,,,-99.99,,2013-01-30 10:32:00,
2013-01-30 05:42:00,63.0,51.0,-100.00,South,175,1.0,13.0,64,0.00,,,-99.99,,2013-01-30 10:42:00,
2013-01-30 05:52:00,63.0,51.0,-100.00,ENE,65,1.0,11.0,64,0.00,,,-99.99,,2013-01-30 10:52:00,
2013-01-30 06:02:00,63.0,51.0,-100.00,ESE,115,1.0,9.0,65,0.00,,,-99.99,,2013-01-30 11:02:00,
2013-01-30 06:11:00,64.0,52.0,-100.00,ENE,70,2.0,10.0,65,0.00,,,-99.99,,2013-01-30 11:11:00,
2013-01-30 06:22:00,64.0,52.0,-100.00,ENE,60,1.0,7.0,64,0.00,,,-99.99,,2013-01-30 11:22:00,
2013-01-30 06:33:00,64.0,52.0,-100.00,SSE,160,2.0,9.0,65,0.00,,,-99.99,,2013-01-30 11:33:00,
2013-01-30 06:42:00,64.0,53.0,-100.00,NNE,20,2.0,9.0,66,0.00,,,-99.99,,2013-01-30 11:42:00,
2013-01-30 06:52:00,64.0,53.0,-100.00,SSE,155,1.0,9.0,65,0.00,,,-99.99,,2013-01-30 11:52:00,
2013-01-30 07:02:00,64.0,53.0,-100.00,NE,45,2.0,9.0,66,0.00,,,-99.99,,2013-01-30 12:02:00,
2013-01-30 07:12:00,65.0,53.0,-100.00,NE,50,2.0,11.0,66,0.00,,,-99.99,,2013-01-30 12:12:00,
2013-01-30 07:22:00,65.0,53.0,-100.00,SSE,165,2.0,9.0,65,0.00,,,-99.99,,2013-01-30 12:22:00,
2013-01-30 07:33:00,65.0,53.0,-100.00,WNW,295,4.0,15.0,65,0.00,,,-99.99,,2013-01-30 12:33:00,
2013-01-30 07:43:00,66.0,54.0,-100.00,South,190,6.0,16.0,64,0.00,,,-99.99,,2013-01-30 12:43:00,
2013-01-30 08:03:00,66.0,54.0,-100.00,South,170,6.0,16.0,64,1.10,,,-99.99,,2013-01-30 13:03:00,
2013-01-30 08:12:00,65.0,55.0,-100.00,SE,140,4.0,14.0,70,5.08,,,-99.99,,2013-01-30 13:12:00,
2013-01-30 08:23:00,62.0,57.0,-100.00,WSW,255,24.0,36.0,84,7.91,,,-99.99,,2013-01-30 13:23:00,
2013-01-30 08:33:00,58.0,-99.9,-100.00,WSW,250,11.0,32.0,-999,8.50,,,-99.99,,2013-01-30 13:33:00,
2013-01-30 08:43:00,58.0,-99.9,-100.00,WSW,240,9.0,21.0,-999,4.53,,,-99.99,,2013-01-30 13:43:00,
2013-01-30 08:53:00,58.0,-99.9,-100.00,West,260,8.0,17.0,-999,0.55,,,-99.99,,2013-01-30 13:53:00,
2013-01-30 09:03:00,58.0,-99.9,-100.00,WSW,255,7.0,16.0,-999,1.10,,,-99.99,,2013-01-30 14:03:00,
2013-01-30 09:12:00,57.0,-99.9,-100.00,WNW,295,4.0,13.0,-999,1.10,,,-99.99,,2013-01-30 14:12:00,
2013-01-30 09:23:00,57.0,-99.9,-100.00,WSW,255,4.0,8.0,-999,0.55,,,-99.99,,2013-01-30 14:23:00,
2013-01-30 09:33:00,56.0,-99.9,-100.00,SW,225,7.0,15.0,-999,1.10,,,-99.99,,2013-01-30 14:33:00,
2013-01-30 09:43:00,56.0,-99.9,-100.00,WSW,255,3.0,9.0,-999,0.55,,,-99.99,,2013-01-30 14:43:00,
2013-01-30 09:53:00,56.0,-99.9,-100.00,West,260,0.0,3.0,-999,1.69,,,-99.99,,2013-01-30 14:53:00,
2013-01-30 10:04:00,56.0,-99.9,-100.00,South,190,1.0,4.0,-999,0.00,,,-99.99,,2013-01-30 15:04:00,
2013-01-30 10:12:00,56.0,-99.9,-100.00,South,190,2.0,3.0,-999,0.55,,,-99.99,,2013-01-30 15:12:00,
2013-01-30 10:24:00,56.0,-99.9,-100.00,SSW,195,1.0,5.0,-999,0.55,,,-99.99,,2013-01-30 15:24:00,
2013-01-30 10:34:00,56.0,-99.9,-100.00,SSE,150,1.0,3.0,-999,2.83,,,-99.99,,2013-01-30 15:34:00,
2013-01-30 10:44:00,56.0,-99.9,-100.00,SW,235,0.0,3.0,-999,1.69,,,-99.99,,2013-01-30 15:44:00,
2013-01-30 10:54:00,56.0,-99.9,-100.00,SSE,155,1.0,6.0,-999,0.55,,,-99.99,,2013-01-30 15:54:00,
2013-01-30 11:03:00,56.0,-99.9,-100.00,South,170,6.0,9.0,-999,0.00,,,-99.99,,2013-01-30 16:03:00,
2013-01-30 11:13:00,56.0,-99.9,-100.00,South,185,4.0,9.0,-999,0.00,,,-99.99,,2013-01-30 16:13:00,
2013-01-30 11:23:00,56.0,55.0,-100.00,South,170,6.0,14.0,97,1.10,,,-99.99,,2013-01-30 16:23:00,
2013-01-30 11:33:00,56.0,-99.9,-100.00,SSW,200,6.0,12.0,-999,5.67,,,-99.99,,2013-01-30 16:33:00,
2013-01-30 11:42:00,56.0,-99.9,-100.00,South,185,7.0,12.0,-999,2.83,,,-99.99,,2013-01-30 16:42:00,
2013-01-30 11:53:00,56.0,-99.9,-100.00,SW,220,1.0,14.0,-999,1.69,,,-99.99,,2013-01-30 16:53:00,
2013-01-30 12:02:00,56.0,55.0,-100.00,SSW,195,4.0,13.0,97,0.55,,,-99.99,,2013-01-30 17:02:00,
2013-01-30 12:13:00,56.0,-99.9,-100.00,South,170,5.0,10.0,-999,2.83,,,-99.99,,2013-01-30 17:13:00,
2013-01-30 12:23:00,56.0,-99.9,-100.00,SE,145,5.0,12.0,-999,1.69,,,-99.99,,2013-01-30 17:23:00,
2013-01-30 12:34:00,56.0,-99.9,-100.00,South,170,6.0,15.0,-999,1.10,,,-99.99,,2013-01-30 17:34:00,
2013-01-30 12:43:00,55.0,-99.9,-100.00,SSW,210,4.0,18.0,-999,3.94,,,-99.99,,2013-01-30 17:43:00,
2013-01-30 12:53:00,56.0,55.0,-100.00,SSW,205,6.0,18.0,95,1.10,,,-99.99,,2013-01-30 17:53:00,
2013-01-30 13:03:00,56.0,54.0,-100.00,South,170,9.0,22.0,95,1.69,,,-99.99,,2013-01-30 18:03:00,
2013-01-30 13:13:00,55.0,-99.9,-100.00,South,170,7.0,17.0,-999,4.53,,,-99.99,,2013-01-30 18:13:00,
2013-01-30 13:24:00,55.0,-99.9,-100.00,SSE,155,7.0,17.0,-999,2.24,,,-99.99,,2013-01-30 18:24:00,
2013-01-30 13:33:00,55.0,-99.9,-100.00,South,175,6.0,12.0,-999,1.10,,,-99.99,,2013-01-30 18:33:00,
2013-01-30 13:43:00,56.0,-99.9,-100.00,SSW,195,6.0,19.0,-999,3.94,,,-99.99,,2013-01-30 18:43:00,
2013-01-30 13:53:00,55.0,-99.9,-100.00,South,170,7.0,16.0,-999,2.24,,,-99.99,,2013-01-30 18:53:00,
2013-01-30 14:03:00,56.0,-99.9,-100.00,South,175,7.0,19.0,-999,1.69,,,-99.99,,2013-01-30 19:03:00,
2013-01-30 14:13:00,55.0,-99.9,-100.00,SE,135,6.0,17.0,-999,0.55,,,-99.99,,2013-01-30 19:13:00,
2013-01-30 14:23:00,56.0,-99.9,-100.00,SE,145,4.0,16.0,-999,1.10,,,-99.99,,2013-01-30 19:23:00,
2013-01-30 14:33:00,56.0,-99.9,-100.00,SW,230,4.0,12.0,-999,0.55,,,-99.99,,2013-01-30 19:33:00,
2013-01-30 14:44:00,56.0,-99.9,-100.00,South,180,9.0,17.0,-999,0.55,,,-99.99,,2013-01-30 19:44:00,
2013-01-30 14:53:00,56.0,-99.9,-100.00,South,170,7.0,16.0,-999,0.55,,,-99.99,,2013-01-30 19:53:00,
2013-01-30 15:04:00,56.0,-99.9,-100.00,NE,55,1.0,13.0,-999,0.55,,,-99.99,,2013-01-30 20:04:00,
2013-01-30 15:12:00,56.0,-99.9,-100.00,South,190,2.0,24.0,-999,0.55,,,-99.99,,2013-01-30 20:12:00,
2013-01-30 15:22:00,56.0,-99.9,-100.00,North,5,2.0,12.0,-999,0.55,,,-99.99,,2013-01-30 20:22:00,
2013-01-30 15:33:00,56.0,-99.9,-100.00,SSW,210,4.0,12.0,-999,0.00,,,-99.99,,2013-01-30 20:33:00,
2013-01-30 15:43:00,56.0,-99.9,-100.00,South,170,6.0,15.0,-999,0.55,,,-99.99,,2013-01-30 20:43:00,
2013-01-30 15:53:00,56.0,-99.9,-100.00,South,175,4.0,12.0,-999,1.69,,,-99.99,,2013-01-30 20:53:00,
2013-01-30 16:04:00,56.0,-99.9,-100.00,SSE,155,6.0,11.0,-999,0.00,,,-99.99,,2013-01-30 21:04:00,
2013-01-30 16:12:00,57.0,55.0,-100.00,SSW,195,8.0,18.0,92,0.55,,,-99.99,,2013-01-30 21:12:00,
2013-01-30 16:23:00,57.0,-99.9,-100.00,North,0,2.0,12.0,-999,0.00,,,-99.99,,2013-01-30 21:23:00,
2013-01-30 16:32:00,57.0,56.0,-100.00,SSE,160,4.0,20.0,96,0.00,,,-99.99,,2013-01-30 21:32:00,
2013-01-30 16:42:00,57.0,56.0,-100.00,South,170,3.0,14.0,95,0.00,,,-99.99,,2013-01-30 21:42:00,
2013-01-30 16:53:00,57.0,-99.9,-100.00,SSE,160,6.0,14.0,-999,0.00,,,-99.99,,2013-01-30 21:53:00,
2013-01-30 17:04:00,57.0,-99.9,-100.00,South,170,4.0,14.0,-999,0.00,,,-99.99,,2013-01-30 22:04:00,
2013-01-30 17:12:00,57.0,56.0,-100.00,South,175,7.0,16.0,96,0.00,,,-99.99,,2013-01-30 22:12:00,
2013-01-30 17:22:00,57.0,56.0,-100.00,SSW,200,4.0,16.0,97,0.00,,,-99.99,,2013-01-30 22:22:00,
2013-01-30 17:33:00,57.0,-99.9,-100.00,SSW,210,4.0,18.0,-999,0.00,,,-99.99,,2013-01-30 22:33:00,
2013-01-30 17:42:00,57.0,56.0,-100.00,SE,140,3.0,14.0,95,0.00,,,-99.99,,2013-01-30 22:42:00,
2013-01-30 17:52:00,57.0,55.0,-100.00,South,175,7.0,17.0,91,0.00,,,-99.99,,2013-01-30 22:52:00,
2013-01-30 18:02:00,57.0,55.0,-100.00,SSW,195,6.0,15.0,92,0.00,,,-99.99,,2013-01-30 23:02:00,
2013-01-30 18:12:00,57.0,55.0,-100.00,SW,220,6.0,9.0,93,0.00,,,-99.99,,2013-01-30 23:12:00,
2013-01-30 18:22:00,57.0,54.0,-100.00,SSW,195,9.0,17.0,90,0.00,,,-99.99,,2013-01-30 23:22:00,
2013-01-30 18:33:00,57.0,53.0,-100.00,WSW,240,7.0,14.0,86,0.00,,,-99.99,,2013-01-30 23:33:00,
2013-01-30 18:42:00,56.0,52.0,-100.00,South,185,9.0,13.0,85,0.00,,,-99.99,,2013-01-30 23:42:00,
2013-01-30 18:52:00,56.0,52.0,-100.00,South,180,6.0,18.0,85,0.00,,,-99.99,,2013-01-30 23:52:00,
2013-01-30 19:02:00,56.0,51.0,-100.00,SSW,205,10.0,16.0,82,0.00,,,-99.99,,2013-01-31 00:02:00,
2013-01-30 19:11:00,56.0,51.0,-100.00,SSW,210,4.0,12.0,83,0.00,,,-99.99,,2013-01-31 00:11:00,
2013-01-30 19:22:00,55.0,51.0,-100.00,SSW,205,5.0,12.0,84,0.00,,,-99.99,,2013-01-31 00:22:00,
2013-01-30 19:32:00,55.0,51.0,-100.00,South,190,6.0,12.0,85,0.00,,,-99.99,,2013-01-31 00:32:00,
2013-01-30 19:42:00,55.0,51.0,-100.00,SSW,205,4.0,11.0,86,0.00,,,-99.99,,2013-01-31 00:42:00,
2013-01-30 19:52:00,54.0,49.0,-100.00,SW,230,6.0,11.0,83,0.00,,,-99.99,,2013-01-31 00:52:00,
2013-01-30 20:02:00,54.0,49.0,-100.00,SSW,200,8.0,12.0,80,0.00,,,-99.99,,2013-01-31 01:02:00,
2013-01-30 20:12:00,54.0,47.0,-100.00,South,180,6.0,12.0,77,0.00,,,-99.99,,2013-01-31 01:12:00,
2013-01-30 20:22:00,53.0,47.0,-100.00,SSW,195,5.0,12.0,77,0.00,,,-99.99,,2013-01-31 01:22:00,
2013-01-30 20:32:00,53.0,46.0,-100.00,SSW,200,6.0,13.0,76,0.00,,,-99.99,,2013-01-31 01:32:00,
2013-01-30 20:42:00,53.0,46.0,-100.00,SSW,200,8.0,17.0,76,0.00,,,-99.99,,2013-01-31 01:42:00,
2013-01-30 20:52:00,53.0,46.0,-100.00,SSW,195,7.0,15.0,77,0.00,,,-99.99,,2013-01-31 01:52:00,
2013-01-30 21:01:00,53.0,46.0,-100.00,South,190,4.0,14.0,78,0.00,,,-99.99,,2013-01-31 02:01:00,
2013-01-30 21:12:00,53.0,46.0,-100.00,SSW,210,7.0,14.0,78,0.00,,,-99.99,,2013-01-31 02:12:00,
2013-01-30 21:22:00,53.0,46.0,-100.00,SSW,205,7.0,13.0,77,0.00,,,-99.99,,2013-01-31 02:22:00,
2013-01-30 21:32:00,52.0,45.0,-100.00,South,170,7.0,12.0,77,0.00,,,-99.99,,2013-01-31 02:32:00,
2013-01-30 21:42:00,52.0,45.0,-100.00,South,170,7.0,12.0,77,0.00,,,-99.99,,2013-01-31 02:42:00,
2013-01-30 21:52:00,52.0,45.0,-100.00,South,170,7.0,12.0,77,0.00,,,-99.99,,2013-01-31 02:52:00,
2013-01-30 22:03:00,41.0,37.0,-100.00,West,260,19.0,29.0,84,1.10,,,-99.99,,2013-01-31 03:03:00,
2013-01-30 22:11:00,40.0,37.0,-100.00,West,265,11.0,24.0,88,0.55,,,-99.99,,2013-01-31 03:11:00,
2013-01-30 22:21:00,39.0,36.0,-100.00,West,260,12.0,28.0,88,2.83,,,-99.99,,2013-01-31 03:21:00,
2013-01-30 22:32:00,38.0,36.0,-100.00,WNW,290,11.0,20.0,90,2.83,,,-99.99,,2013-01-31 03:32:00,
2013-01-30 22:42:00,38.0,37.0,-100.00,West,275,4.0,21.0,95,2.24,,,-99.99,,2013-01-31 03:42:00,
2013-01-30 22:51:00,38.0,36.0,-100.00,WSW,240,7.0,17.0,91,0.55,,,-99.99,,2013-01-31 03:51:00,
2013-01-30 23:02:00,38.0,36.0,-100.00,WSW,255,7.0,14.0,89,0.00,,,-99.99,,2013-01-31 04:02:00,
2013-01-30 23:11:00,39.0,35.0,-100.00,SW,230,8.0,16.0,87,0.00,,,-99.99,,2013-01-31 04:11:00,
2013-01-30 23:22:00,38.0,35.0,-100.00,WSW,255,6.0,16.0,89,0.55,,,-99.99,,2013-01-31 04:22:00,
2013-01-30 23:32:00,37.0,34.0,-100.00,WSW,255,17.0,36.0,87,0.55,,,-99.99,,2013-01-31 04:32:00,
2013-01-30 23:41:00,36.0,33.0,-100.00,WSW,250,16.0,27.0,87,0.00,,,-99.99,,2013-01-31 04:41:00,
2013-01-30 23:51:00,36.0,32.0,-100.00,WSW,255,16.0,29.0,87,0.00,,,-99.99,,2013-01-31 04:51:00,